Huvudsida
METAR-TAF:

METAR-TAF

Flygplatser :

Hans Christian Andersens flygplats

Odense, Danmark

latitud: 55-29N, longitud: 010-20E, höjd: 17 m

Aktuellt väderrapport

Denna rapport gjordes för 1 timme och 3 minuter sedan, klockan 06:50 UTC
Vind 8 kt från nord/nordväst
Temperatur 10°C
Fuktighet 100%
Tryck 1022 hPa
Sikt 10 km eller mer
Spridda moln på en höjd av 1200 ft

METAR: EKOD 180650Z 33008KT 9999 SCT012 10/10 Q1022

Tid: 09:53 (07:53 UTC)

Väderprognos

Denna rapport gjordes för 59 minuter sedan, klockan 06:54 UTC
Prognos gäller från 18 kl. 07 UTC till 18 kl. 15 UTC
Vind 14 kt från nord/nordväst
Sikt 10 km eller mer
Spridda moln på en höjd av 1200 ft

TAF: EKOD 180654Z 1807/1815 34014KT 9999 SCT012

Aktuella väderrapporter och prognoser från 4000 flygplatser (METAR- och TAF-rapporter).

De tillgängliga stationerna syns som gula och röda prickar på kartan.

För musen över prickarna för att se namnen på stationerna.

Klicka sedan för att få väderrapporter och prognoser.

För att ändra kartan: Klicka på de gröna knapparna med ett svart kors på för att zooma in; den gröna knappen med ett streck på för att zooma ut; eller på de gröna pilarna för angränsande kartor.


METAR-TAF: